Terminal Aerodrome Forecast
Issued by NWS Tuscon, AZ

Home | Current Version | Previous Version | Text Only | Print | Product List | Glossary On
Versions: 1 2 3 4 5 6 7 8 9 10 11 12 13 14 15
888
FTUS45 KTWC 262327
TAFDUG
TAF
KDUG 262327Z 2700/2724 25010G16KT P6SM SKC
     FM270200 33008KT P6SM FEW200
     FM271000 VRB04KT P6SM SCT200
     FM271700 20012KT P6SM SCT200
     FM272000 23015G25KT P6SM BKN200=

USA.gov is the U.S. government's official web portal to all federal, state and local government web resources and services.